createdAt,value
2022-08-03T00:00:36.798Z,13.40
2022-08-03T00:03:06.213Z,15.18
2022-08-03T00:05:35.839Z,15.00
2022-08-03T00:08:04.756Z,14.95
2022-08-03T00:13:03.383Z,21.95
2022-08-03T00:15:31.466Z,25.30
2022-08-03T00:17:59.867Z,19.90
2022-08-03T00:20:28.119Z,16.58
2022-08-03T00:22:58.481Z,16.85
2022-08-03T00:25:27.432Z,15.30
2022-08-03T00:27:55.749Z,15.23
2022-08-03T00:30:24.152Z,17.65
2022-08-03T00:32:58.216Z,13.60
2022-08-03T00:35:46.541Z,13.65
2022-08-03T00:38:18.012Z,18.00
2022-08-03T00:40:46.238Z,21.05
2022-08-03T00:43:14.521Z,23.65
2022-08-03T00:45:44.844Z,20.60
2022-08-03T00:48:19.798Z,17.58
2022-08-03T00:51:02.262Z,14.02
2022-08-03T00:53:32.592Z,15.65
2022-08-03T00:56:00.824Z,13.13
2022-08-03T00:58:29.392Z,10.90
2022-08-03T01:00:57.662Z,12.20
2022-08-03T01:03:25.927Z,10.45
2022-08-03T01:05:57.858Z,10.98
2022-08-03T01:08:36.756Z,10.30
2022-08-03T01:11:10.040Z,11.65
2022-08-03T01:14:01.243Z,14.15
2022-08-03T01:16:37.159Z,12.25
2022-08-03T01:19:17.244Z,18.27
2022-08-03T01:21:57.210Z,13.27
2022-08-03T01:24:36.911Z,13.27
2022-08-03T01:27:12.121Z,21.08
2022-08-03T01:29:53.755Z,21.23
2022-08-03T01:32:59.658Z,16.10
2022-08-03T01:35:18.764Z,16.73
2022-08-03T01:37:52.089Z,17.58
2022-08-03T01:40:22.259Z,22.00
2022-08-03T01:42:51.984Z,24.00
2022-08-03T01:45:22.128Z,17.33
2022-08-03T01:47:51.068Z,18.35
2022-08-03T01:50:22.529Z,24.55
2022-08-03T01:52:51.848Z,20.73
2022-08-03T01:55:20.894Z,15.95
2022-08-03T01:58:04.827Z,14.38
2022-08-03T02:00:37.745Z,14.27
2022-08-03T02:03:07.478Z,16.88
2022-08-03T02:05:36.928Z,17.15
2022-08-03T02:08:06.575Z,15.95
2022-08-03T02:10:36.890Z,15.30
2022-08-03T02:13:06.865Z,12.57
2022-08-03T02:15:37.424Z,14.00
2022-08-03T02:18:07.581Z,22.30
2022-08-03T02:20:38.002Z,28.10
2022-08-03T02:23:06.936Z,24.40
2022-08-03T02:25:36.505Z,26.50
2022-08-03T02:28:08.641Z,26.73
2022-08-03T02:30:39.957Z,20.35
2022-08-03T02:33:12.456Z,16.92
2022-08-03T02:35:41.418Z,18.95
2022-08-03T02:38:11.614Z,46.92
2022-08-03T02:40:40.360Z,46.83
2022-08-03T02:43:11.904Z,44.80
2022-08-03T02:45:45.989Z,32.78
2022-08-03T02:48:17.586Z,30.75
2022-08-03T02:50:46.583Z,27.48
2022-08-03T02:53:15.493Z,25.00
2022-08-03T02:55:45.731Z,24.83
2022-08-03T02:58:15.395Z,22.42
2022-08-03T03:00:45.668Z,18.90
2022-08-03T03:03:14.398Z,26.80
2022-08-03T03:05:55.414Z,27.30
2022-08-03T03:08:28.830Z,24.95
2022-08-03T03:10:58.638Z,26.35
2022-08-03T03:13:28.647Z,26.52
2022-08-03T03:16:01.708Z,25.40
2022-08-03T03:18:30.536Z,26.08
2022-08-03T03:20:59.424Z,28.70
2022-08-03T03:23:28.262Z,29.83
2022-08-03T03:25:58.700Z,29.08
2022-08-03T03:28:27.132Z,28.80
2022-08-03T03:30:55.582Z,42.72
2022-08-03T03:33:28.035Z,40.00
2022-08-03T03:35:56.996Z,37.58
2022-08-03T03:38:25.522Z,28.98
2022-08-03T03:40:53.806Z,29.15
2022-08-03T03:43:24.748Z,33.35
2022-08-03T03:45:54.115Z,28.70
2022-08-03T03:48:22.504Z,43.50
2022-08-03T03:50:52.358Z,41.63
2022-08-03T03:53:20.993Z,37.15
2022-08-03T03:55:58.975Z,34.75
2022-08-03T03:58:32.938Z,30.27
2022-08-03T04:01:01.499Z,35.63
2022-08-03T04:03:29.985Z,38.42
2022-08-03T04:06:17.825Z,35.22
2022-08-03T04:09:15.705Z,31.40
2022-08-03T04:11:50.424Z,33.03
2022-08-03T04:14:21.240Z,30.88
2022-08-03T04:16:53.610Z,30.45
2022-08-03T04:19:26.920Z,27.70
2022-08-03T04:22:00.823Z,26.20
2022-08-03T04:24:34.328Z,25.73
2022-08-03T04:27:04.336Z,26.05
2022-08-03T04:29:35.061Z,20.10
2022-08-03T04:32:07.190Z,22.30
2022-08-03T04:34:35.404Z,22.13
2022-08-03T04:37:11.528Z,24.02
2022-08-03T04:39:40.779Z,22.85
2022-08-03T04:42:10.285Z,22.23
2022-08-03T04:44:40.628Z,18.90
2022-08-03T04:47:09.646Z,18.30
2022-08-03T04:49:38.596Z,16.98
2022-08-03T04:52:10.114Z,17.08
2022-08-03T04:54:42.623Z,14.60
2022-08-03T04:57:22.946Z,16.60
2022-08-03T05:00:01.477Z,15.70
2022-08-03T05:02:31.272Z,18.52
2022-08-03T05:05:00.126Z,17.33
2022-08-03T05:07:35.738Z,16.75
2022-08-03T05:10:16.157Z,13.60
2022-08-03T05:12:46.817Z,12.77
2022-08-03T05:15:16.223Z,12.07
2022-08-03T05:17:44.675Z,11.95
2022-08-03T05:20:13.180Z,11.98
2022-08-03T05:22:46.279Z,14.30
2022-08-03T05:25:17.328Z,14.13
2022-08-03T05:27:48.583Z,12.48
2022-08-03T05:30:30.885Z,16.13
2022-08-03T05:33:03.982Z,12.60
2022-08-03T05:36:02.171Z,14.95
2022-08-03T05:38:23.986Z,15.38
2022-08-03T05:41:20.596Z,17.67
2022-08-03T05:43:45.495Z,13.45
2022-08-03T05:46:13.715Z,21.48
2022-08-03T05:48:42.224Z,17.23
2022-08-03T05:51:12.074Z,18.98
2022-08-03T05:53:42.297Z,14.68
2022-08-03T05:56:14.295Z,14.25
2022-08-03T05:58:45.365Z,15.52
2022-08-03T06:01:13.852Z,13.32
2022-08-03T06:03:42.282Z,12.25
2022-08-03T06:06:11.855Z,11.25
2022-08-03T06:08:41.905Z,9.18
2022-08-03T06:11:10.137Z,13.23
2022-08-03T06:13:38.550Z,9.13
2022-08-03T06:16:07.205Z,9.40
2022-08-03T06:18:35.539Z,8.50
2022-08-03T06:21:14.195Z,8.60
2022-08-03T06:23:54.764Z,7.75
2022-08-03T06:28:54.659Z,7.93
2022-08-03T06:31:33.158Z,7.22
2022-08-03T06:34:32.575Z,6.63
2022-08-03T06:36:52.891Z,5.28
2022-08-03T06:39:24.450Z,7.60
2022-08-03T06:41:54.241Z,8.13
2022-08-03T06:44:22.681Z,9.52
2022-08-03T06:46:51.925Z,7.22
2022-08-03T06:49:20.281Z,7.18
2022-08-03T06:52:03.491Z,5.93
2022-08-03T06:54:34.602Z,7.32
2022-08-03T07:00:07.971Z,6.40
2022-08-03T07:02:20.685Z,6.28
2022-08-03T07:04:48.975Z,5.63
2022-08-03T07:07:17.546Z,6.85
2022-08-03T07:09:57.519Z,6.05
2022-08-03T07:12:30.181Z,8.70
2022-08-03T07:15:02.642Z,5.88
2022-08-03T07:17:32.519Z,5.78
2022-08-03T07:20:01.532Z,5.53
2022-08-03T07:22:29.783Z,7.53
2022-08-03T07:24:59.775Z,6.15
2022-08-03T07:27:29.436Z,6.13
2022-08-03T07:29:58.124Z,5.03
2022-08-03T07:32:26.495Z,5.20
2022-08-03T07:35:00.374Z,4.32
2022-08-03T07:37:29.609Z,4.90
2022-08-03T07:39:59.563Z,6.07
2022-08-03T07:42:28.545Z,6.95
2022-08-03T07:44:57.189Z,4.82
2022-08-03T07:47:34.866Z,5.05
2022-08-03T07:50:05.567Z,3.80
2022-08-03T07:52:50.839Z,4.00
2022-08-03T07:55:21.844Z,4.45
2022-08-03T07:58:01.319Z,4.32
2022-08-03T08:00:29.582Z,4.15
2022-08-03T08:02:57.966Z,4.63
2022-08-03T08:05:26.143Z,4.10
2022-08-03T08:07:54.267Z,4.07
2022-08-03T08:10:24.117Z,3.35
2022-08-03T08:12:52.205Z,3.33
2022-08-03T08:15:20.340Z,3.13
2022-08-03T08:17:51.065Z,4.33
2022-08-03T08:20:28.452Z,3.15
2022-08-03T08:23:02.053Z,3.45
2022-08-03T08:25:34.014Z,3.92
2022-08-03T08:28:28.994Z,3.17
2022-08-03T08:30:52.653Z,4.55
2022-08-03T08:33:22.816Z,5.30
2022-08-03T08:35:53.208Z,4.00
2022-08-03T08:38:21.667Z,3.70
2022-08-03T08:40:52.062Z,3.25
2022-08-03T08:43:20.249Z,3.47
2022-08-03T08:45:50.819Z,5.63
2022-08-03T08:48:22.235Z,3.90
2022-08-03T08:50:54.176Z,4.15
2022-08-03T08:53:27.180Z,4.50
2022-08-03T08:56:01.459Z,3.70
2022-08-03T08:58:36.678Z,3.78
2022-08-03T09:01:05.409Z,5.38
2022-08-03T09:03:35.634Z,4.72
2022-08-03T09:06:04.640Z,4.03
2022-08-03T09:08:34.403Z,3.60
2022-08-03T09:11:03.915Z,4.07
2022-08-03T09:16:16.826Z,4.53
2022-08-03T09:18:47.418Z,3.97
2022-08-03T09:21:32.586Z,3.90
2022-08-03T09:24:05.885Z,4.97
2022-08-03T09:26:38.731Z,5.63
2022-08-03T09:29:14.343Z,5.43
2022-08-03T09:31:45.933Z,5.32
2022-08-03T09:34:16.010Z,4.85
2022-08-03T09:36:46.814Z,6.10
2022-08-03T09:39:17.230Z,4.57
2022-08-03T09:41:49.356Z,4.93
2022-08-03T09:44:25.157Z,5.47
2022-08-03T09:46:57.214Z,4.82
2022-08-03T09:49:26.173Z,4.47
2022-08-03T09:52:33.283Z,6.38
2022-08-03T09:54:44.352Z,4.95
2022-08-03T09:57:24.598Z,4.00
2022-08-03T10:00:02.999Z,4.85
2022-08-03T10:05:01.159Z,4.22
2022-08-03T10:07:29.222Z,4.80
2022-08-03T10:10:29.878Z,5.47
2022-08-03T10:12:50.002Z,5.13
2022-08-03T10:16:22.547Z,5.60
2022-08-03T10:18:07.534Z,11.80
2022-08-03T10:20:39.435Z,11.48
2022-08-03T10:23:09.458Z,9.10
2022-08-03T10:25:39.379Z,8.20
2022-08-03T10:28:09.540Z,6.63
2022-08-03T10:30:39.249Z,7.53
2022-08-03T10:33:49.256Z,7.70
2022-08-03T10:36:01.422Z,5.60
2022-08-03T10:38:31.542Z,7.00
2022-08-03T10:41:00.666Z,5.53
2022-08-03T10:43:35.762Z,5.22
2022-08-03T10:46:06.502Z,5.63
2022-08-03T10:48:35.972Z,5.47
2022-08-03T10:51:04.909Z,6.03
2022-08-03T10:53:37.675Z,4.97
2022-08-03T10:56:28.636Z,6.40
2022-08-03T10:59:14.626Z,4.78
2022-08-03T11:02:00.321Z,5.38
2022-08-03T11:04:30.310Z,4.90
2022-08-03T11:07:21.730Z,5.90
2022-08-03T11:09:51.627Z,6.53
2022-08-03T11:12:30.438Z,6.65
2022-08-03T11:15:04.117Z,4.95
2022-08-03T11:17:33.866Z,4.95
2022-08-03T11:20:15.285Z,4.50
2022-08-03T11:22:50.962Z,6.60
2022-08-03T11:25:53.779Z,5.80
2022-08-03T11:28:29.008Z,5.25
2022-08-03T11:31:53.682Z,7.78
2022-08-03T11:34:22.074Z,6.22
2022-08-03T11:37:28.799Z,5.97
2022-08-03T11:40:02.773Z,5.28
2022-08-03T11:42:41.661Z,6.05
2022-08-03T11:45:11.206Z,5.60
2022-08-03T11:47:51.092Z,5.00
2022-08-03T11:52:48.879Z,5.45
2022-08-03T11:55:20.559Z,8.57
2022-08-03T11:59:10.766Z,5.90
2022-08-03T12:00:37.710Z,7.22
2022-08-03T12:03:10.870Z,6.43
2022-08-03T12:05:41.600Z,5.80
2022-08-03T12:08:30.918Z,7.20
2022-08-03T12:11:00.661Z,8.38
2022-08-03T12:14:44.706Z,6.60
2022-08-03T12:16:28.831Z,9.07
2022-08-03T12:19:00.205Z,6.65
2022-08-03T12:21:28.737Z,7.22
2022-08-03T12:24:01.008Z,6.22
2022-08-03T12:26:29.834Z,6.72
2022-08-03T12:28:58.337Z,8.50
2022-08-03T12:31:26.849Z,8.32
2022-08-03T12:34:02.995Z,8.32
2022-08-03T12:36:32.635Z,10.52
2022-08-03T12:39:02.519Z,9.80
2022-08-03T12:41:34.221Z,13.25
2022-08-03T12:44:04.250Z,9.52
2022-08-03T12:46:36.206Z,9.18
2022-08-03T12:49:07.986Z,10.15
2022-08-03T12:51:38.462Z,10.02
2022-08-03T12:54:07.282Z,9.07
2022-08-03T12:56:35.816Z,8.48
2022-08-03T12:59:24.904Z,8.93
2022-08-03T13:02:01.383Z,9.88
2022-08-03T13:04:36.601Z,9.05
2022-08-03T13:07:06.621Z,8.77
2022-08-03T13:09:43.628Z,8.73
2022-08-03T13:12:13.633Z,8.55
2022-08-03T13:14:42.245Z,10.05
2022-08-03T13:17:10.464Z,9.02
2022-08-03T13:19:41.106Z,8.30
2022-08-03T13:22:13.396Z,8.57
2022-08-03T13:24:42.004Z,8.60
2022-08-03T13:28:00.949Z,7.95
2022-08-03T13:29:58.623Z,9.23
2022-08-03T13:32:26.888Z,9.15
2022-08-03T13:34:56.321Z,9.75
2022-08-03T13:37:24.924Z,10.73
2022-08-03T13:39:58.956Z,11.75
2022-08-03T13:42:30.354Z,8.68
2022-08-03T13:44:58.790Z,9.20
2022-08-03T13:47:27.311Z,9.75
2022-08-03T13:50:00.947Z,12.93
2022-08-03T13:52:32.150Z,10.40
2022-08-03T13:55:00.767Z,10.27
2022-08-03T13:58:04.319Z,9.32
2022-08-03T14:00:26.391Z,8.40
2022-08-03T14:03:16.384Z,7.40
2022-08-03T14:05:46.105Z,9.70
2022-08-03T14:08:14.178Z,8.65
2022-08-03T14:10:43.647Z,9.90
2022-08-03T14:13:12.536Z,8.43
2022-08-03T14:15:49.789Z,7.90
2022-08-03T14:18:28.384Z,8.00
2022-08-03T14:21:07.380Z,9.23
2022-08-03T14:23:36.901Z,8.68
2022-08-03T14:26:05.103Z,8.00
2022-08-03T14:28:33.218Z,8.13
2022-08-03T14:31:01.986Z,10.18
2022-08-03T14:33:30.187Z,17.15
2022-08-03T14:35:58.373Z,16.20
2022-08-03T14:38:28.434Z,15.27
2022-08-03T14:40:56.511Z,17.43
2022-08-03T14:43:24.877Z,14.65
2022-08-03T14:45:54.263Z,12.48
2022-08-03T14:50:33.284Z,10.35
2022-08-03T14:51:11.727Z,11.80
2022-08-03T14:53:41.835Z,10.30
2022-08-03T14:56:10.951Z,8.25
2022-08-03T14:58:39.631Z,8.68
2022-08-03T15:02:05.576Z,9.27
2022-08-03T15:03:57.044Z,9.20
2022-08-03T15:06:25.357Z,7.75
2022-08-03T15:09:21.674Z,7.53
2022-08-03T15:11:43.794Z,7.73
2022-08-03T15:14:13.548Z,8.15
2022-08-03T15:16:43.205Z,7.32
2022-08-03T15:20:02.235Z,8.07
2022-08-03T15:22:01.016Z,7.45
2022-08-03T15:24:31.984Z,9.05
2022-08-03T15:27:00.204Z,8.13
2022-08-03T15:30:08.968Z,8.60
2022-08-03T15:32:16.886Z,7.40
2022-08-03T15:34:50.743Z,10.38
2022-08-03T15:37:20.874Z,8.48
2022-08-03T15:39:59.887Z,8.02
2022-08-03T15:42:30.448Z,7.53
2022-08-03T15:44:58.558Z,9.48
2022-08-03T15:47:26.743Z,9.90
2022-08-03T15:49:55.124Z,10.48
2022-08-03T15:52:23.275Z,9.57
2022-08-03T15:54:52.726Z,9.05
2022-08-03T15:57:21.407Z,7.97
2022-08-03T15:59:49.682Z,9.18
2022-08-03T16:02:18.002Z,9.88
2022-08-03T16:04:46.243Z,8.70
2022-08-03T16:07:15.903Z,10.68
2022-08-03T16:09:44.414Z,8.32
2022-08-03T16:12:16.350Z,8.10
2022-08-03T16:14:52.767Z,8.38
2022-08-03T16:17:22.431Z,8.35
2022-08-03T16:19:50.886Z,8.75
2022-08-03T16:22:23.903Z,9.18
2022-08-03T16:24:52.190Z,8.95
2022-08-03T16:27:56.843Z,8.40
2022-08-03T16:30:11.114Z,7.88
2022-08-03T16:32:39.961Z,11.77
2022-08-03T16:35:09.074Z,7.50
2022-08-03T16:37:56.066Z,8.07
2022-08-03T16:40:25.994Z,7.70
2022-08-03T16:42:56.071Z,8.20
2022-08-03T16:45:24.250Z,8.63
2022-08-03T16:48:06.018Z,8.30
2022-08-03T16:50:36.647Z,7.47
2022-08-03T16:53:09.215Z,6.97
2022-08-03T16:55:43.489Z,8.45
2022-08-03T16:58:34.617Z,6.90
2022-08-03T17:01:21.754Z,7.72
2022-08-03T17:04:01.252Z,7.68
2022-08-03T17:06:34.372Z,7.30
2022-08-03T17:09:09.088Z,8.55
2022-08-03T17:11:44.042Z,7.97
2022-08-03T17:14:17.250Z,7.10
2022-08-03T17:16:54.162Z,7.32
2022-08-03T17:19:24.507Z,6.97
2022-08-03T17:21:57.986Z,8.15
2022-08-03T17:24:30.146Z,7.63
2022-08-03T17:27:02.382Z,7.47
2022-08-03T17:29:33.835Z,7.47
2022-08-03T17:32:10.107Z,8.05
2022-08-03T17:34:39.794Z,6.35
2022-08-03T17:37:27.312Z,8.40
2022-08-03T17:39:59.160Z,7.47
2022-08-03T17:42:31.910Z,7.18
2022-08-03T17:45:03.983Z,7.70
2022-08-03T17:47:42.497Z,7.32
2022-08-03T17:50:25.077Z,7.88
2022-08-03T17:53:07.496Z,7.80
2022-08-03T17:55:58.552Z,6.82
2022-08-03T17:58:43.935Z,8.02
2022-08-03T18:02:00.650Z,7.10
2022-08-03T18:04:29.725Z,6.95
2022-08-03T18:07:11.286Z,8.52
2022-08-03T18:10:06.706Z,7.70
2022-08-03T18:12:41.486Z,6.78
2022-08-03T18:15:21.203Z,7.60
2022-08-03T18:18:01.984Z,8.57
2022-08-03T18:20:40.957Z,7.57
2022-08-03T18:23:24.818Z,6.00
2022-08-03T18:26:01.686Z,6.63
2022-08-03T18:28:30.599Z,8.32
2022-08-03T18:31:00.617Z,6.03
2022-08-03T18:34:17.623Z,6.57
2022-08-03T18:36:29.971Z,6.22
2022-08-03T18:39:01.674Z,7.72
2022-08-03T18:41:32.346Z,7.47
2022-08-03T18:44:08.427Z,9.90
2022-08-03T18:46:48.451Z,7.90
2022-08-03T18:49:29.230Z,7.97
2022-08-03T18:52:04.760Z,6.95
2022-08-03T18:55:02.760Z,6.43
2022-08-03T18:57:41.121Z,6.28
2022-08-03T19:00:14.272Z,7.18
2022-08-03T19:02:48.959Z,6.07
2022-08-03T19:05:21.726Z,6.75
2022-08-03T19:07:58.150Z,6.47
2022-08-03T19:10:32.152Z,9.55
2022-08-03T19:13:05.131Z,6.57
2022-08-03T19:15:51.043Z,5.72
2022-08-03T19:18:22.012Z,6.38
2022-08-03T19:20:54.807Z,7.57
2022-08-03T19:23:25.947Z,8.35
2022-08-03T19:26:00.515Z,5.90
2022-08-03T19:28:29.895Z,6.93
2022-08-03T19:31:02.616Z,5.40
2022-08-03T19:33:57.455Z,8.55
2022-08-03T19:36:26.614Z,7.85
2022-08-03T19:38:58.498Z,5.88
2022-08-03T19:41:31.055Z,6.93
2022-08-03T19:44:11.772Z,7.88
2022-08-03T19:46:45.450Z,6.40
2022-08-03T19:49:16.802Z,7.10
2022-08-03T19:52:02.101Z,7.70
2022-08-03T19:54:45.483Z,5.40
2022-08-03T19:57:24.933Z,9.57
2022-08-03T19:59:55.042Z,6.93
2022-08-03T20:02:26.615Z,7.72
2022-08-03T20:04:57.162Z,14.98
2022-08-03T20:07:27.574Z,13.63
2022-08-03T20:09:57.006Z,8.68
2022-08-03T20:12:27.807Z,7.30
2022-08-03T20:14:57.304Z,9.35
2022-08-03T20:17:56.147Z,9.32
2022-08-03T20:20:14.708Z,9.75
2022-08-03T20:22:47.781Z,8.45
2022-08-03T20:25:21.055Z,9.50
2022-08-03T20:28:06.852Z,12.20
2022-08-03T20:30:43.760Z,9.88
2022-08-03T20:33:12.398Z,10.00
2022-08-03T20:35:49.734Z,9.48
2022-08-03T20:38:20.148Z,10.00
2022-08-03T20:40:56.497Z,10.15
2022-08-03T20:43:27.469Z,9.43
2022-08-03T20:45:58.522Z,8.85
2022-08-03T20:48:45.139Z,9.50
2022-08-03T20:51:19.851Z,12.23
2022-08-03T20:53:56.981Z,11.80
2022-08-03T20:56:31.995Z,13.25
2022-08-03T20:59:04.181Z,14.52
2022-08-03T21:04:21.166Z,11.98
2022-08-03T21:06:53.100Z,10.68
2022-08-03T21:09:33.502Z,11.05
2022-08-03T21:12:09.568Z,9.85
2022-08-03T21:13:14.022Z,11.40
2022-08-03T21:14:40.778Z,14.48
2022-08-03T21:17:19.446Z,11.77
2022-08-03T21:19:58.765Z,10.50
2022-08-03T21:22:27.293Z,10.73
2022-08-03T21:24:57.984Z,12.25
2022-08-03T21:27:26.562Z,11.60
2022-08-03T21:29:54.747Z,16.15
2022-08-03T21:32:33.128Z,14.95
2022-08-03T21:35:02.396Z,14.98
2022-08-03T21:37:30.645Z,10.40
2022-08-03T21:40:00.497Z,12.65
2022-08-03T21:42:29.229Z,10.93
2022-08-03T21:44:57.512Z,11.35
2022-08-03T21:47:26.035Z,10.57
2022-08-03T21:50:08.354Z,10.40
2022-08-03T21:52:42.357Z,9.75
2022-08-03T21:55:18.359Z,12.57
2022-08-03T21:57:53.470Z,10.75
2022-08-03T22:00:23.282Z,10.48
2022-08-03T22:02:54.622Z,9.65
2022-08-03T22:05:28.983Z,9.68
2022-08-03T22:08:11.411Z,10.70
2022-08-03T22:10:41.076Z,9.25
2022-08-03T22:13:09.411Z,9.23
2022-08-03T22:15:37.525Z,11.10
2022-08-03T22:18:06.375Z,9.30
2022-08-03T22:20:34.644Z,10.85
2022-08-03T22:23:04.441Z,10.02
2022-08-03T22:25:34.787Z,11.23
2022-08-03T22:28:06.779Z,9.32
2022-08-03T22:30:37.726Z,10.20
2022-08-03T22:33:11.677Z,10.90
2022-08-03T22:35:44.208Z,11.38
2022-08-03T22:38:17.062Z,11.57
2022-08-03T22:40:47.980Z,12.40
2022-08-03T22:43:17.727Z,9.27
2022-08-03T22:46:09.742Z,10.32
2022-08-03T22:48:36.648Z,12.23
2022-08-03T22:51:10.194Z,12.93
2022-08-03T22:53:40.000Z,14.30
2022-08-03T22:56:08.753Z,11.18
2022-08-03T22:58:38.343Z,12.15
2022-08-03T23:01:08.894Z,14.70
2022-08-03T23:03:59.763Z,14.40
2022-08-03T23:06:28.572Z,13.60
2022-08-03T23:08:56.968Z,14.00
2022-08-03T23:11:25.332Z,14.57
2022-08-03T23:13:56.624Z,13.55
2022-08-03T23:16:29.151Z,12.65
2022-08-03T23:18:59.393Z,16.98
2022-08-03T23:21:51.271Z,12.88
2022-08-03T23:24:29.405Z,16.10
2022-08-03T23:26:58.811Z,14.52
2022-08-03T23:29:30.410Z,12.55
2022-08-03T23:34:44.992Z,15.38
2022-08-03T23:37:14.906Z,12.95
2022-08-03T23:39:47.178Z,17.60
2022-08-03T23:42:18.269Z,13.68
2022-08-03T23:44:48.174Z,14.50
2022-08-03T23:47:16.431Z,14.23
2022-08-03T23:49:45.250Z,16.33
2022-08-03T23:52:18.667Z,17.50
2022-08-03T23:54:55.477Z,16.83
2022-08-03T23:57:29.723Z,15.43
